createdAt,value
2018-06-13T00:01:56.908Z,7.70
2018-06-13T00:04:25.182Z,7.10
2018-06-13T00:06:53.500Z,6.40
2018-06-13T00:09:21.781Z,6.87
2018-06-13T00:11:50.149Z,7.60
2018-06-13T00:14:18.598Z,8.27
2018-06-13T00:16:46.908Z,7.77
2018-06-13T00:19:15.199Z,11.07
2018-06-13T00:21:43.476Z,7.57
2018-06-13T00:24:11.751Z,6.20
2018-06-13T00:26:40.067Z,6.63
2018-06-13T00:29:08.595Z,8.27
2018-06-13T00:31:36.896Z,8.67
2018-06-13T00:34:05.197Z,10.37
2018-06-13T00:36:33.474Z,7.83
2018-06-13T00:39:01.937Z,6.93
2018-06-13T00:41:30.206Z,7.43
2018-06-13T00:43:58.697Z,5.27
2018-06-13T00:46:26.984Z,7.20
2018-06-13T00:48:55.344Z,5.33
2018-06-13T00:51:23.625Z,6.03
2018-06-13T00:53:51.925Z,6.73
2018-06-13T00:56:31.412Z,6.07
2018-06-13T00:58:59.724Z,4.50
2018-06-13T01:01:28.065Z,5.77
2018-06-13T01:03:56.361Z,5.57
2018-06-13T01:06:24.686Z,8.80
2018-06-13T01:08:53.026Z,5.57
2018-06-13T01:11:21.305Z,5.60
2018-06-13T01:13:49.613Z,5.03
2018-06-13T01:16:17.908Z,4.97
2018-06-13T01:18:46.181Z,4.43
2018-06-13T01:21:14.475Z,6.13
2018-06-13T01:23:42.769Z,5.03
2018-06-13T01:26:11.057Z,5.27
2018-06-13T01:28:39.333Z,4.93
2018-06-13T01:31:07.667Z,5.30
2018-06-13T01:33:36.050Z,6.27
2018-06-13T01:36:04.393Z,6.17
2018-06-13T01:38:32.706Z,6.00
2018-06-13T01:41:00.981Z,5.53
2018-06-13T01:43:29.278Z,6.63
2018-06-13T01:45:57.566Z,7.40
2018-06-13T01:48:25.869Z,7.07
2018-06-13T01:50:55.300Z,5.80
2018-06-13T01:53:23.941Z,6.20
2018-06-13T01:55:52.267Z,5.30
2018-06-13T01:58:21.156Z,7.30
2018-06-13T02:00:49.702Z,6.23
2018-06-13T02:03:18.025Z,5.83
2018-06-13T02:05:46.313Z,4.97
2018-06-13T02:08:14.611Z,6.10
2018-06-13T02:10:42.905Z,6.63
2018-06-13T02:13:11.197Z,4.80
2018-06-13T02:15:39.497Z,6.07
2018-06-13T02:18:07.790Z,5.53
2018-06-13T02:20:36.077Z,6.90
2018-06-13T02:23:04.398Z,7.27
2018-06-13T02:25:32.697Z,8.63
2018-06-13T02:28:00.986Z,8.73
2018-06-13T02:30:29.260Z,9.97
2018-06-13T02:32:57.578Z,7.20
2018-06-13T02:35:25.860Z,9.40
2018-06-13T02:37:54.812Z,7.90
2018-06-13T02:40:23.088Z,7.63
2018-06-13T02:42:51.384Z,9.90
2018-06-13T02:45:19.684Z,9.00
2018-06-13T02:47:47.972Z,9.70
2018-06-13T02:50:16.277Z,9.10
2018-06-13T02:52:44.584Z,9.70
2018-06-13T02:55:12.881Z,8.67
2018-06-13T02:57:41.181Z,7.67
2018-06-13T03:00:09.464Z,9.50
2018-06-13T03:02:37.763Z,9.70
2018-06-13T03:05:06.070Z,9.37
2018-06-13T03:07:34.382Z,11.07
2018-06-13T03:10:02.728Z,14.00
2018-06-13T03:12:31.005Z,11.47
2018-06-13T03:14:59.320Z,13.33
2018-06-13T03:17:27.612Z,14.13
2018-06-13T03:19:55.884Z,12.07
2018-06-13T03:22:24.193Z,17.17
2018-06-13T03:24:52.504Z,14.50
2018-06-13T03:27:20.793Z,16.70
2018-06-13T03:29:49.085Z,18.00
2018-06-13T03:32:17.394Z,13.13
2018-06-13T03:34:45.690Z,14.67
2018-06-13T03:37:13.989Z,14.07
2018-06-13T03:39:42.285Z,13.90
2018-06-13T03:42:10.568Z,16.73
2018-06-13T03:44:38.876Z,14.10
2018-06-13T03:47:07.180Z,17.53
2018-06-13T03:49:35.453Z,15.47
2018-06-13T03:52:03.770Z,18.03
2018-06-13T03:54:32.078Z,17.43
2018-06-13T03:57:00.353Z,17.73
2018-06-13T03:59:28.645Z,17.80
2018-06-13T04:01:56.936Z,17.43
2018-06-13T04:04:25.233Z,16.03
2018-06-13T04:06:53.539Z,21.13
2018-06-13T04:09:21.537Z,22.10
2018-06-13T04:11:49.836Z,20.87
2018-06-13T04:14:18.123Z,18.97
2018-06-13T04:16:46.439Z,16.87
2018-06-13T04:19:14.734Z,17.93
2018-06-13T04:21:43.028Z,22.20
2018-06-13T04:24:11.327Z,20.57
2018-06-13T04:26:39.621Z,29.77
2018-06-13T04:29:07.917Z,16.77
2018-06-13T04:31:36.689Z,16.43
2018-06-13T04:34:05.015Z,13.20
2018-06-13T04:36:33.305Z,14.37
2018-06-13T04:39:02.584Z,14.60
2018-06-13T04:41:30.894Z,15.90
2018-06-13T04:43:59.188Z,14.73
2018-06-13T04:46:27.504Z,15.90
2018-06-13T04:48:55.866Z,17.10
2018-06-13T04:51:24.295Z,16.80
2018-06-13T04:53:52.633Z,18.03
2018-06-13T04:56:20.661Z,19.63
2018-06-13T04:58:48.968Z,20.80
2018-06-13T05:01:18.168Z,21.37
2018-06-13T05:03:46.489Z,22.03
2018-06-13T05:06:14.797Z,21.10
2018-06-13T05:08:43.092Z,20.70
2018-06-13T05:11:11.393Z,18.83
2018-06-13T05:13:39.695Z,18.57
2018-06-13T05:16:08.003Z,16.07
2018-06-13T05:18:36.485Z,11.53
2018-06-13T05:21:04.963Z,11.83
2018-06-13T05:23:33.471Z,12.40
2018-06-13T05:26:01.805Z,12.53
2018-06-13T05:28:30.084Z,13.53
2018-06-13T05:30:58.376Z,14.30
2018-06-13T05:33:27.331Z,13.30
2018-06-13T05:35:55.613Z,10.63
2018-06-13T05:38:23.956Z,9.90
2018-06-13T05:40:52.237Z,9.17
2018-06-13T05:43:20.526Z,8.00
2018-06-13T05:45:49.133Z,9.30
2018-06-13T05:48:17.408Z,11.33
2018-06-13T05:50:45.677Z,11.73
2018-06-13T05:53:13.994Z,9.43
2018-06-13T05:55:42.265Z,10.10
2018-06-13T05:58:10.570Z,11.93
2018-06-13T06:00:38.869Z,10.87
2018-06-13T06:03:07.186Z,10.10
2018-06-13T06:05:35.500Z,11.10
2018-06-13T06:08:03.838Z,10.93
2018-06-13T06:10:32.233Z,11.37
2018-06-13T06:13:00.438Z,11.57
2018-06-13T06:15:28.720Z,13.80
2018-06-13T06:17:57.032Z,11.97
2018-06-13T06:20:25.363Z,13.37
2018-06-13T06:22:53.865Z,12.53
2018-06-13T06:25:22.170Z,12.97
2018-06-13T06:27:50.552Z,15.23
2018-06-13T06:30:19.168Z,15.23
2018-06-13T06:32:47.772Z,14.03
2018-06-13T06:35:16.481Z,15.07
2018-06-13T06:37:44.999Z,13.60
2018-06-13T06:40:13.303Z,13.33
2018-06-13T06:42:41.589Z,11.20
2018-06-13T06:45:09.952Z,10.93
2018-06-13T06:47:38.368Z,11.83
2018-06-13T06:50:06.780Z,12.30
2018-06-13T06:52:35.114Z,12.93
2018-06-13T06:55:03.454Z,12.97
2018-06-13T06:57:31.750Z,13.23
2018-06-13T07:00:00.113Z,13.97
2018-06-13T07:02:28.402Z,13.63
2018-06-13T07:04:56.716Z,15.00
2018-06-13T07:07:25.026Z,14.83
2018-06-13T07:09:53.326Z,13.97
2018-06-13T07:12:21.642Z,12.97
2018-06-13T07:14:49.938Z,12.20
2018-06-13T07:17:18.264Z,12.77
2018-06-13T07:19:46.582Z,10.67
2018-06-13T07:22:14.859Z,12.83
2018-06-13T07:24:43.190Z,11.43
2018-06-13T07:27:11.552Z,12.90
2018-06-13T07:29:39.854Z,13.07
2018-06-13T07:32:08.159Z,13.03
2018-06-13T07:34:36.556Z,12.47
2018-06-13T07:37:04.883Z,11.80
2018-06-13T07:39:33.181Z,14.50
2018-06-13T07:42:01.464Z,11.00
2018-06-13T07:44:29.829Z,10.20
2018-06-13T07:46:58.160Z,10.10
2018-06-13T07:49:26.465Z,13.23
2018-06-13T07:51:54.753Z,13.60
2018-06-13T07:54:23.061Z,15.40
2018-06-13T07:56:51.350Z,14.50
2018-06-13T07:59:19.652Z,17.57
2018-06-13T08:01:47.933Z,22.33
2018-06-13T08:04:16.225Z,25.10
2018-06-13T08:06:44.493Z,16.80
2018-06-13T08:09:12.799Z,16.90
2018-06-13T08:11:41.153Z,16.93
2018-06-13T08:14:09.445Z,17.33
2018-06-13T08:16:37.773Z,17.27
2018-06-13T08:19:06.109Z,17.00
2018-06-13T08:21:34.402Z,17.70
2018-06-13T08:24:02.703Z,17.97
2018-06-13T08:26:31.040Z,17.43
2018-06-13T08:28:59.354Z,16.80
2018-06-13T08:31:27.659Z,15.27
2018-06-13T08:33:55.934Z,18.33
2018-06-13T08:36:24.260Z,18.50
2018-06-13T08:38:52.559Z,17.33
2018-06-13T08:41:20.849Z,18.27
2018-06-13T08:43:49.150Z,19.20
2018-06-13T08:46:17.446Z,19.37
2018-06-13T08:48:45.803Z,19.20
2018-06-13T08:51:14.099Z,20.53
2018-06-13T08:53:42.382Z,22.17
2018-06-13T08:56:10.674Z,24.20
2018-06-13T08:58:38.973Z,26.27
2018-06-13T09:01:07.276Z,22.20
2018-06-13T09:03:35.610Z,25.33
2018-06-13T09:06:03.910Z,27.83
2018-06-13T09:08:32.211Z,25.17
2018-06-13T09:11:00.568Z,30.27
2018-06-13T09:13:28.855Z,24.03
2018-06-13T09:15:57.163Z,26.47
2018-06-13T09:18:25.441Z,28.43
2018-06-13T09:20:53.730Z,25.60
2018-06-13T09:23:21.997Z,28.40
2018-06-13T09:25:50.285Z,25.70
2018-06-13T09:28:18.564Z,29.93
2018-06-13T09:30:46.895Z,29.00
2018-06-13T09:33:15.240Z,29.63
2018-06-13T09:35:43.519Z,27.97
2018-06-13T09:38:11.827Z,25.33
2018-06-13T09:40:40.097Z,26.50
2018-06-13T09:43:08.437Z,29.37
2018-06-13T09:45:36.746Z,28.50
2018-06-13T09:48:05.050Z,26.80
2018-06-13T09:50:33.316Z,25.90
2018-06-13T09:53:01.664Z,28.67
2018-06-13T09:55:29.981Z,28.40
2018-06-13T09:57:58.325Z,29.63
2018-06-13T10:00:32.134Z,28.47
2018-06-13T10:03:00.446Z,30.53
2018-06-13T10:05:28.731Z,29.80
2018-06-13T10:07:57.040Z,29.37
2018-06-13T10:10:25.361Z,31.80
2018-06-13T10:12:53.735Z,31.57
2018-06-13T10:15:22.060Z,31.33
2018-06-13T10:17:50.120Z,29.43
2018-06-13T10:20:18.444Z,30.13
2018-06-13T10:22:46.749Z,27.87
2018-06-13T10:25:15.041Z,27.47
2018-06-13T10:27:43.331Z,28.93
2018-06-13T10:30:11.647Z,30.27
2018-06-13T10:32:39.932Z,32.30
2018-06-13T10:35:08.332Z,29.80
2018-06-13T10:37:36.628Z,25.83
2018-06-13T10:40:04.939Z,27.70
2018-06-13T10:42:33.257Z,28.00
2018-06-13T10:45:01.561Z,32.67
2018-06-13T10:47:29.875Z,28.97
2018-06-13T10:50:28.862Z,30.70
2018-06-13T10:52:57.257Z,29.73
2018-06-13T10:55:25.558Z,34.13
2018-06-13T10:57:53.857Z,28.73
2018-06-13T11:00:22.137Z,28.97
2018-06-13T11:02:50.440Z,27.93
2018-06-13T11:05:18.710Z,27.47
2018-06-13T11:07:47.003Z,35.23
2018-06-13T11:10:15.290Z,27.77
2018-06-13T11:12:43.597Z,26.83
2018-06-13T11:15:11.881Z,25.10
2018-06-13T11:17:40.172Z,26.50
2018-06-13T11:20:08.480Z,26.77
2018-06-13T11:22:36.800Z,25.60
2018-06-13T11:25:05.113Z,25.77
2018-06-13T11:27:33.395Z,26.07
2018-06-13T11:30:01.748Z,27.03
2018-06-13T11:32:30.043Z,25.57
2018-06-13T11:35:01.646Z,24.83
2018-06-13T11:37:29.981Z,28.20
2018-06-13T11:39:58.289Z,27.63
2018-06-13T11:42:26.848Z,26.47
2018-06-13T11:44:55.265Z,30.20
2018-06-13T11:47:23.565Z,27.07
2018-06-13T11:49:51.857Z,28.23
2018-06-13T11:52:20.165Z,30.60
2018-06-13T11:54:48.884Z,28.57
2018-06-13T11:57:17.485Z,28.77
2018-06-13T11:59:45.804Z,31.93
2018-06-13T12:02:14.116Z,27.07
2018-06-13T12:04:42.424Z,27.20
2018-06-13T12:07:10.723Z,27.27
2018-06-13T12:09:39.173Z,30.20
2018-06-13T12:12:07.587Z,28.00
2018-06-13T12:14:35.881Z,25.90
2018-06-13T12:17:04.232Z,26.63
2018-06-13T12:19:32.498Z,26.53
2018-06-13T12:22:00.793Z,24.87
2018-06-13T12:24:29.117Z,26.90
2018-06-13T12:26:57.452Z,24.50
2018-06-13T12:29:25.766Z,25.53
2018-06-13T12:31:54.067Z,24.90
2018-06-13T12:34:22.397Z,26.43
2018-06-13T12:36:50.705Z,24.50
2018-06-13T12:39:22.325Z,25.40
2018-06-13T12:41:54.660Z,25.73
2018-06-13T12:44:25.051Z,24.70
2018-06-13T12:46:53.435Z,26.57
2018-06-13T12:49:21.712Z,24.73
2018-06-13T12:51:50.033Z,25.07
2018-06-13T12:54:18.358Z,25.27
2018-06-13T12:56:46.699Z,25.43
2018-06-13T12:59:15.038Z,24.13
2018-06-13T13:01:43.332Z,24.93
2018-06-13T13:04:11.647Z,25.17
2018-06-13T13:06:39.933Z,24.63
2018-06-13T13:09:10.433Z,24.80
2018-06-13T13:11:38.730Z,24.33
2018-06-13T13:14:07.034Z,26.30
2018-06-13T13:16:35.366Z,24.63
2018-06-13T13:19:03.657Z,26.87
2018-06-13T13:21:31.985Z,22.67
2018-06-13T13:24:00.272Z,26.17
2018-06-13T13:26:28.553Z,25.13
2018-06-13T13:28:56.848Z,26.87
2018-06-13T13:31:25.165Z,25.50
2018-06-13T13:33:53.483Z,28.10
2018-06-13T13:36:21.792Z,30.33
2018-06-13T13:38:50.129Z,27.47
2018-06-13T13:41:18.399Z,29.13
2018-06-13T13:43:46.686Z,31.63
2018-06-13T13:46:15.114Z,30.13
2018-06-13T13:48:43.421Z,32.57
2018-06-13T13:51:11.744Z,29.70
2018-06-13T13:53:40.046Z,32.93
2018-06-13T13:56:08.380Z,33.80
2018-06-13T13:58:36.698Z,36.93
2018-06-13T14:01:05.093Z,32.60
2018-06-13T14:03:33.401Z,31.33
2018-06-13T14:06:02.621Z,31.67
2018-06-13T14:08:30.936Z,29.97
2018-06-13T14:10:59.509Z,30.37
2018-06-13T14:13:27.787Z,29.17
2018-06-13T14:15:56.069Z,29.43
2018-06-13T14:18:25.245Z,23.20
2018-06-13T14:20:53.590Z,23.80
2018-06-13T14:23:21.893Z,23.30
2018-06-13T14:25:50.197Z,24.13
2018-06-13T14:28:18.486Z,24.30
2018-06-13T14:30:46.797Z,23.07
2018-06-13T14:33:15.102Z,21.87
2018-06-13T14:35:44.226Z,21.90
2018-06-13T14:38:12.550Z,23.87
2018-06-13T14:40:40.901Z,21.43
2018-06-13T14:43:09.190Z,22.27
2018-06-13T14:45:37.512Z,20.33
2018-06-13T14:48:05.797Z,22.10
2018-06-13T14:50:34.133Z,21.37
2018-06-13T14:53:02.384Z,21.37
2018-06-13T14:55:35.130Z,22.17
2018-06-13T14:58:03.522Z,21.70
2018-06-13T15:00:31.814Z,18.13
2018-06-13T15:03:00.096Z,22.47
2018-06-13T15:05:29.074Z,20.20
2018-06-13T15:07:57.430Z,21.13
2018-06-13T15:10:25.806Z,20.13
2018-06-13T15:12:54.156Z,19.10
2018-06-13T15:15:22.439Z,18.73
2018-06-13T15:17:53.755Z,17.67
2018-06-13T15:20:22.000Z,19.83
2018-06-13T15:22:50.346Z,20.47
2018-06-13T15:25:18.631Z,20.00
2018-06-13T15:27:46.912Z,20.87
2018-06-13T15:30:15.235Z,20.67
2018-06-13T15:32:43.546Z,20.63
2018-06-13T15:35:11.846Z,22.23
2018-06-13T15:37:40.165Z,21.30
2018-06-13T15:40:08.470Z,23.37
2018-06-13T15:42:36.843Z,19.83
2018-06-13T15:45:05.841Z,23.47
2018-06-13T15:47:34.130Z,20.77
2018-06-13T15:50:02.465Z,21.63
2018-06-13T15:52:30.781Z,19.93
2018-06-13T15:54:59.186Z,22.03
2018-06-13T15:57:27.486Z,21.57
2018-06-13T15:59:55.885Z,20.20
2018-06-13T16:02:24.537Z,21.60
2018-06-13T16:04:52.919Z,23.37
2018-06-13T16:07:22.080Z,21.43
2018-06-13T16:09:50.402Z,19.70
2018-06-13T16:12:18.712Z,20.40
2018-06-13T16:14:47.054Z,23.13
2018-06-13T16:17:15.336Z,20.03
2018-06-13T16:19:43.625Z,21.23
2018-06-13T16:22:11.917Z,22.20
2018-06-13T16:24:40.246Z,23.50
2018-06-13T16:27:08.572Z,23.87
2018-06-13T16:29:36.846Z,21.60
2018-06-13T16:32:05.142Z,21.93
2018-06-13T16:34:33.439Z,20.10
2018-06-13T16:37:01.713Z,21.50
2018-06-13T16:39:29.994Z,19.97
2018-06-13T16:41:59.067Z,18.20
2018-06-13T16:44:27.366Z,17.80
2018-06-13T16:46:55.707Z,17.83
2018-06-13T16:49:23.985Z,19.77
2018-06-13T16:51:55.217Z,19.17
2018-06-13T16:54:34.905Z,18.53
2018-06-13T16:57:03.227Z,17.97
2018-06-13T16:59:31.518Z,16.23
2018-06-13T17:01:59.810Z,18.07
2018-06-13T17:04:28.101Z,17.60
2018-06-13T17:06:56.411Z,17.13
2018-06-13T17:09:24.733Z,16.33
2018-06-13T17:11:53.077Z,17.20
2018-06-13T17:14:21.386Z,17.70
2018-06-13T17:16:49.689Z,17.53
2018-06-13T17:19:17.984Z,17.13
2018-06-13T17:21:46.042Z,17.63
2018-06-13T17:24:14.317Z,16.80
2018-06-13T17:26:42.674Z,16.67
2018-06-13T17:29:10.981Z,17.20
2018-06-13T17:31:39.270Z,21.20
2018-06-13T17:34:07.566Z,18.20
2018-06-13T17:36:35.876Z,18.93
2018-06-13T17:39:06.209Z,22.90
2018-06-13T17:41:34.523Z,19.90
2018-06-13T17:44:02.845Z,20.80
2018-06-13T17:46:31.166Z,17.30
2018-06-13T17:48:59.466Z,16.97
2018-06-13T17:51:27.773Z,16.50
2018-06-13T17:54:02.993Z,16.50
2018-06-13T17:56:31.430Z,16.77
2018-06-13T17:58:59.893Z,19.73
2018-06-13T18:01:28.176Z,18.33
2018-06-13T18:03:56.668Z,18.40
2018-06-13T18:06:24.884Z,21.13
2018-06-13T18:08:53.202Z,17.50
2018-06-13T18:11:21.551Z,21.67
2018-06-13T18:13:49.897Z,17.40
2018-06-13T18:16:18.412Z,16.73
2018-06-13T18:18:46.709Z,17.77
2018-06-13T18:21:14.998Z,17.30
2018-06-13T18:23:43.306Z,18.07
2018-06-13T18:26:11.610Z,18.70
2018-06-13T18:28:39.925Z,19.70
2018-06-13T18:31:08.232Z,20.90
2018-06-13T18:33:36.521Z,17.23
2018-06-13T18:36:05.234Z,17.93
2018-06-13T18:38:33.526Z,15.87
2018-06-13T18:41:01.847Z,18.03
2018-06-13T18:43:30.154Z,15.40
2018-06-13T18:45:58.499Z,14.80
2018-06-13T18:48:26.763Z,17.27
2018-06-13T18:50:55.068Z,15.20
2018-06-13T18:53:29.853Z,13.27
2018-06-13T18:55:58.509Z,14.10
2018-06-13T18:58:27.507Z,15.30
2018-06-13T19:00:55.888Z,14.83
2018-06-13T19:03:24.224Z,13.17
2018-06-13T19:05:52.526Z,14.00
2018-06-13T19:08:20.827Z,14.20
2018-06-13T19:10:49.137Z,14.00
2018-06-13T19:13:17.438Z,13.33
2018-06-13T19:15:45.469Z,12.30
2018-06-13T19:18:13.809Z,12.97
2018-06-13T19:20:42.176Z,13.87
2018-06-13T19:23:10.451Z,12.77
2018-06-13T19:25:38.748Z,14.10
2018-06-13T19:28:10.002Z,12.00
2018-06-13T19:30:38.319Z,12.10
2018-06-13T19:33:06.626Z,12.73
2018-06-13T19:35:34.941Z,12.40
2018-06-13T19:38:03.269Z,11.93
2018-06-13T19:40:31.559Z,12.30
2018-06-13T19:43:00.059Z,13.10
2018-06-13T19:45:28.338Z,12.00
2018-06-13T19:48:01.983Z,16.20
2018-06-13T19:50:30.397Z,12.33
2018-06-13T19:53:04.253Z,13.03
2018-06-13T19:55:37.965Z,12.17
2018-06-13T19:58:06.253Z,14.57
2018-06-13T20:00:34.558Z,12.20
2018-06-13T20:03:08.074Z,13.03
2018-06-13T20:05:40.179Z,11.57
2018-06-13T20:08:08.526Z,12.97
2018-06-13T20:10:36.828Z,12.93
2018-06-13T20:13:10.677Z,11.63
2018-06-13T20:15:44.195Z,11.90
2018-06-13T20:18:17.905Z,12.47
2018-06-13T20:20:46.237Z,11.80
2018-06-13T20:23:14.534Z,12.40
2018-06-13T20:25:48.260Z,12.63
2018-06-13T20:28:21.842Z,14.07
2018-06-13T20:30:55.593Z,12.23
2018-06-13T20:33:23.909Z,15.50
2018-06-13T20:35:52.228Z,12.43
2018-06-13T20:38:20.545Z,13.67
2018-06-13T20:40:48.888Z,11.27
2018-06-13T20:43:17.174Z,13.37
2018-06-13T20:45:45.477Z,12.87
2018-06-13T20:48:13.830Z,12.50
2018-06-13T20:50:42.155Z,13.90
2018-06-13T20:53:10.444Z,12.97
2018-06-13T20:55:38.765Z,12.03
2018-06-13T20:58:07.093Z,15.33
2018-06-13T21:00:35.399Z,13.47
2018-06-13T21:03:03.725Z,13.23
2018-06-13T21:05:32.035Z,12.20
2018-06-13T21:08:03.415Z,12.27
2018-06-13T21:10:31.743Z,14.23
2018-06-13T21:13:00.913Z,12.07
2018-06-13T21:15:29.230Z,11.87
2018-06-13T21:17:57.535Z,12.53
2018-06-13T21:20:25.904Z,12.67
2018-06-13T21:22:54.130Z,12.20
2018-06-13T21:25:22.468Z,11.37
2018-06-13T21:27:50.755Z,12.17
2018-06-13T21:30:19.085Z,12.27
2018-06-13T21:32:47.376Z,11.77
2018-06-13T21:35:15.674Z,11.37
2018-06-13T21:37:43.994Z,14.67
2018-06-13T21:40:12.384Z,13.67
2018-06-13T21:42:40.663Z,12.13
2018-06-13T21:45:08.980Z,12.40
2018-06-13T21:47:37.274Z,12.17
2018-06-13T21:50:05.668Z,12.03
2018-06-13T21:52:33.960Z,11.60
2018-06-13T21:55:02.245Z,11.97
2018-06-13T21:57:31.242Z,13.03
2018-06-13T21:59:59.543Z,12.97
2018-06-13T22:02:27.854Z,13.97
2018-06-13T22:04:56.157Z,13.23
2018-06-13T22:07:24.438Z,13.43
2018-06-13T22:09:52.727Z,12.83
2018-06-13T22:12:21.034Z,12.43
2018-06-13T22:14:49.336Z,14.60
2018-06-13T22:17:17.659Z,13.00
2018-06-13T22:19:45.953Z,11.90
2018-06-13T22:22:14.247Z,12.57
2018-06-13T22:24:42.543Z,12.23
2018-06-13T22:27:10.829Z,11.50
2018-06-13T22:29:39.124Z,11.27
2018-06-13T22:32:07.419Z,13.20
2018-06-13T22:34:35.712Z,12.93
2018-06-13T22:37:03.989Z,12.30
2018-06-13T22:39:32.291Z,12.10
2018-06-13T22:42:00.646Z,12.33
2018-06-13T22:44:28.944Z,13.03
2018-06-13T22:46:57.216Z,12.40
2018-06-13T22:49:25.624Z,12.63
2018-06-13T22:51:53.945Z,11.90
2018-06-13T22:54:22.274Z,13.60
2018-06-13T22:56:50.585Z,13.60
2018-06-13T22:59:18.877Z,14.03
2018-06-13T23:01:47.197Z,12.13
2018-06-13T23:04:15.523Z,15.37
2018-06-13T23:06:43.841Z,13.47
2018-06-13T23:09:12.171Z,13.00
2018-06-13T23:11:40.481Z,13.37
2018-06-13T23:14:08.784Z,12.63
2018-06-13T23:16:37.095Z,11.57
2018-06-13T23:19:05.393Z,14.10
2018-06-13T23:21:33.718Z,12.57
2018-06-13T23:24:02.034Z,13.77
2018-06-13T23:26:30.349Z,17.50
2018-06-13T23:28:58.642Z,11.77
2018-06-13T23:31:26.939Z,10.93
2018-06-13T23:33:55.256Z,11.30
2018-06-13T23:36:23.591Z,12.27
2018-06-13T23:38:51.902Z,12.33
2018-06-13T23:41:20.194Z,14.63
2018-06-13T23:43:48.495Z,11.87
2018-06-13T23:46:16.802Z,11.33
2018-06-13T23:48:45.141Z,13.80
2018-06-13T23:51:13.481Z,12.57
2018-06-13T23:53:41.789Z,11.87
2018-06-13T23:56:10.134Z,12.83
2018-06-13T23:58:38.564Z,11.30
